Latest Coastal Weather Observations for Ballina

IDN60701

Issued at 3:51 am EDT Wednesday 1 March 2017 (issued every 10 minutes, with the page automatically refreshed every 10 minutes)

About coastal observations | Map of coastal stations | Coastal observations for NSW | Marine services | Other Formats
Station Details ID: 058198 Name: BALLINA AIRPORT AWS Lat: -28.84 Lon: 153.56 Height: 1.3 m
Data from the previous 72 hours. | See also: Recent months at Ballina
Date/Time
EDT
Temp
°C
Wind Pressure Rain since
9am
mm
Weather Cloud Vis
km
Sea
Height
m
Swell
Dir  Spd
kts
Gust
kts
hPa Trend Height
m
Period
s
Dir
01/03:30am 19.5 WNW 5 7 1016.9 - - - Partly cloudy 10 - - - -
01/03:00am 19.6 WSW 5 7 1017.4 - 1.0 - Cloudy 10 - - - -
01/02:30am 19.1 CALM 0 0 1017.7 - - - Partly cloudy 10 - - - -
01/02:08am 19.1 W 1 4 1017.8 - - - Partly cloudy 10 - - - -
01/02:00am 19.1 CALM 0 0 1018.0 - - - Partly cloudy 10 - - - -
01/01:30am 19.1 W 3 3 1017.8 - - - - 10 - - - -
01/01:00am 19.4 SW 7 10 1018.3 - - - Partly cloudy 10 - - - -
01/12:30am 19.8 SSE 4 7 1018.7 - - - Partly cloudy 10 - - - -
01/12:14am 19.8 S 4 7 1019.1 - - - Partly cloudy 9 - - - -
01/12:00am 19.8 SE 7 10 1019.0 - - Rain Cloudy 4 - - - -
 
Date/Time
EDT
Temp
°C
Wind Pressure Rain since
9am
mm
Weather Cloud Vis
km
Sea
Height
m
Swell
Dir  Spd
kts
Gust
kts
hPa Trend Height
m
Period
s
Dir
28/11:55pm 19.9 SE 7 10 1018.8 - - - Partly cloudy 5 - - - -
28/11:30pm 20.2 WSW 5 7 1018.8 - - - Partly cloudy 10 - - - -
28/11:00pm 20.2 WSW 6 7 1018.6 - - - Partly cloudy 10 - - - -
28/10:30pm 20.5 WSW 4 6 1018.8 - - - Partly cloudy 10 - - - -
28/10:00pm 20.9 WSW 6 7 1018.9 - - - Partly cloudy 10 - - - -
28/09:30pm 21.2 WSW 7 9 1019.2 - - - Partly cloudy 10 - - - -
28/09:00pm 21.1 SW 8 9 1018.8 - - Recent precip. Cloudy 10 - - - -
28/08:30pm 21.4 SW 6 9 1018.4 - - - Partly cloudy 6 - - - -
28/08:00pm 21.4 CALM 0 0 1018.2 - - - Partly cloudy 10 - - - -
28/07:30pm 21.7 CALM 0 0 1017.8 - - - Partly cloudy 10 - - - -
28/07:00pm 22.7 CALM 0 1 1017.6 - - - Partly cloudy 9 - - - -
28/06:30pm 22.9 S 5 7 1017.4 - - - Partly cloudy 10 - - - -
28/06:00pm 24.0 SE 4 7 1017.4 - - - Cloudy 10 - - - -
28/05:30pm 24.3 SSE 3 6 1017.3 - - - Partly cloudy 10 - - - -
28/05:00pm 24.1 SE 4 7 1017.3 - - - Partly cloudy 10 - - - -
28/04:30pm 23.9 ESE 7 10 1017.4 - - - - 10 - - - -
28/04:00pm 24.3 SE 6 9 1017.2 - 24.0 - Partly cloudy - - - - -
28/03:30pm 24.1 SE 7 10 1017.0 - 24.0 - Partly cloudy 10 - - - -
28/03:00pm 23.9 SSE 7 10 1017.3 - 24.0 - Cloudy 10 - - - -
28/02:30pm 23.8 SE 7 9 1017.1 - 24.0 - Partly cloudy 10 - - - -
28/02:00pm 23.5 SSE 9 12 1017.3 - 24.0 - Partly cloudy 10 - - - -
28/01:30pm 22.5 S 8 11 1017.8 - 24.0 - Partly cloudy 10 - - - -
28/01:26pm 22.3 S 9 11 1017.8 - 24.0 - Partly cloudy 10 - - - -
28/01:00pm 21.6 SSE 9 14 1017.9 - 23.4 - Partly cloudy 2 - - - -
28/12:30pm 22.1 S 4 6 1018.0 - 9.8 - Partly cloudy 2 - - - -
28/12:28pm 22.0 S 4 6 1018.1 - 9.4 - Partly cloudy 2 - - - -
28/12:10pm 22.3 SSW 5 9 1018.1 - 6.4 - Partly cloudy 5 - - - -
28/12:06pm 22.5 WSW 5 9 1018.1 - 6.2 - Partly cloudy 10 - - - -
28/12:00pm 22.5 WSW 7 9 1018.0 - 6.0 - Cloudy 10 - - - -
28/11:30am 21.6 W 5 7 1018.3 - 6.0 - Partly cloudy 10 - - - -
28/11:00am 20.8 NNW 5 6 1018.5 - 6.0 - Partly cloudy 10 - - - -
28/10:52am 21.1 WNW 4 6 1018.6 - 6.0 - Partly cloudy 10 - - - -
28/10:30am 20.7 N 2 5 1018.4 - 5.2 - Partly cloudy 3 - - - -
28/10:26am 20.7 ENE 3 6 1018.4 - 4.6 - Partly cloudy 3 - - - -
28/10:08am 20.4 NNE 6 10 1018.1 - 1.4 - Partly cloudy 5 - - - -
28/10:00am 20.6 N 11 15 1018.2 - 0.6 - Partly cloudy 8 - - - -
28/09:57am 20.6 N 12 17 1018.2 - 0.4 - Partly cloudy 9 - - - -
28/09:30am 22.5 SE 9 13 1017.6 - 0.0 - Partly cloudy 10 - - - -
28/09:00am 22.5 SE 9 14 1017.6 - 43.0 - Cloudy 10 - - - -
28/08:30am 22.1 ESE 11 15 1017.5 - 43.0 - Partly cloudy 10 - - - -
28/08:00am 21.7 ESE 10 17 1017.5 - 43.0 - Partly cloudy 10 - - - -
28/07:30am 21.5 E 10 17 1017.1 - 43.0 - Partly cloudy 10 - - - -
28/07:18am 21.3 ESE 9 12 1016.8 - 43.0 - Partly cloudy 10 - - - -
28/07:03am 21.2 E 8 11 1016.6 - 43.0 - Partly cloudy 10 - - - -
28/07:00am 21.1 E 7 11 1016.7 - 43.0 - Partly cloudy 10 - - - -
28/06:38am 21.3 SE 7 20 1016.6 - 41.8 - Partly cloudy 4 - - - -
28/06:35am 21.3 SE 5 20 1016.6 - 41.6 - Partly cloudy 5 - - - -
28/06:30am 21.0 SE 3 7 1016.5 - 40.8 - Partly cloudy 10 - - - -
28/06:00am 20.9 ESE 4 6 1016.7 - 40.8 Rain Cloudy 10 - - - -
28/05:30am 20.4 SE 4 7 1016.7 - 40.2 - Partly cloudy 10 - - - -
28/05:00am 20.5 ESE 6 8 1016.8 - 40.2 - Partly cloudy 10 - - - -
28/04:30am 20.7 ESE 6 10 1016.9 - 39.4 - Partly cloudy 9 - - - -
28/04:00am 20.9 SSE 7 11 1016.6 - 38.0 - Partly cloudy 10 - - - -
28/03:56am 20.9 SSE 9 14 1016.7 - 38.0 - Partly cloudy 10 - - - -
28/03:34am 20.5 SW 6 7 1017.0 - 37.8 - Partly cloudy 10 - - - -
28/03:30am 20.4 SW 6 7 1017.1 - 37.8 - Partly cloudy 10 - - - -
28/03:00am 20.5 S 8 11 1017.7 - 37.6 Recent precip. Cloudy 10 - - - -
28/02:30am 20.6 SSE 11 18 1018.0 - 37.6 - Partly cloudy 10 - - - -
28/02:19am 20.2 SSE 10 16 1017.8 - 37.6 - Partly cloudy 10 - - - -
28/02:00am 20.3 SSE 13 17 1018.1 - 37.4 - Partly cloudy 10 - - - -
28/01:45am 19.7 S 8 13 1018.6 - 37.4 - Partly cloudy 10 - - - -
28/01:30am 19.5 SSW 5 7 1018.8 - 37.4 - Partly cloudy 10 - - - -
28/01:25am 19.4 SSW 5 7 1018.7 - 37.4 - Partly cloudy 10 - - - -
28/01:11am 19.3 SW 4 6 1018.8 - 37.2 - Partly cloudy 4 - - - -
28/01:00am 19.3 SSW 3 7 1019.1 - 36.0 - Partly cloudy 3 - - - -
28/12:30am 19.0 NE 2 6 1019.7 - 31.8 - Partly cloudy 2 - - - -
28/12:15am 19.0 NE 5 9 1020.0 - 27.8 - Partly cloudy 2 - - - -
28/12:00am 18.9 CALM 0 0 1020.0 - 23.2 Rain Cloudy 2 - - - -
 
Date/Time
EDT
Temp
°C
Wind Pressure Rain since
9am
mm
Weather Cloud Vis
km
Sea
Height
m
Swell
Dir  Spd
kts
Gust
kts
hPa Trend Height
m
Period
s
Dir
27/11:37pm 18.9 WNW 4 5 1019.7 - 20.6 - Partly cloudy 5 - - - -
27/11:30pm 18.9 WSW 5 6 1019.6 - 20.2 - Partly cloudy 10 - - - -
27/11:00pm 18.9 SW 7 9 1019.9 - 19.6 - Partly cloudy 10 - - - -
27/10:30pm 19.2 WSW 6 8 1019.8 - 19.6 - Partly cloudy 10 - - - -
27/10:00pm 19.4 WSW 8 11 1019.8 - 19.4 - Partly cloudy 8 - - - -
27/09:30pm 20.0 WSW 7 8 1019.8 - 19.0 - Partly cloudy 10 - - - -
27/09:00pm 20.5 W 7 9 1019.8 - 19.0 Rain Cloudy 10 - - - -
27/08:30pm 20.8 - 2 5 1019.6 - 18.6 - Partly cloudy 10 - - - -
27/08:00pm 21.3 SE 10 15 1019.2 - 18.2 - Partly cloudy 10 - - - -
27/07:30pm 20.8 SE 11 17 1018.8 - 18.0 - Partly cloudy 10 - - - -
27/07:02pm 20.2 SE 9 13 1018.7 - 17.4 - Partly cloudy 6 - - - -
27/07:00pm 20.2 SE 9 13 1018.7 - 17.2 - Partly cloudy 6 - - - -
27/06:30pm 20.0 ESE 15 22 1018.7 - 13.0 - Partly cloudy 0.6 - - - -
27/06:24pm 21.4 S 8 19 1018.6 - 3.2 - Partly cloudy 4 - - - -
27/06:00pm 22.8 SW 7 11 1018.2 - 0.6 - Cloudy 10 - - - -
27/05:30pm 22.6 SW 8 12 1018.0 - 0.6 - Partly cloudy 10 - - - -
27/05:00pm 22.1 SW 9 12 1018.0 - 0.6 - Partly cloudy 10 - - - -
27/04:30pm 22.1 SW 8 11 1018.0 - 0.6 - Partly cloudy 10 - - - -
27/04:00pm 22.0 SW 8 12 1018.4 - 0.6 - Partly cloudy 10 - - - -
27/03:30pm 21.8 SW 8 13 1018.7 - 0.6 - Partly cloudy 10 - - - -
27/03:19pm 21.8 SW 8 12 1018.8 - 0.6 - Partly cloudy 10 - - - -
27/03:00pm 21.6 SW 8 11 1018.8 - 0.6 - Cloudy 10 - - - -
27/02:43pm 21.7 WSW 8 11 1018.9 - 0.6 - Partly cloudy 10 - - - -
27/02:30pm 21.8 WSW 9 12 1018.9 - 0.6 - Partly cloudy 10 - - - -
27/02:00pm 22.5 SSW 9 13 1019.3 - 0.6 - Partly cloudy 10 - - - -
27/01:30pm 22.5 SW 8 12 1019.6 - 0.6 - Partly cloudy 10 - - - -
27/01:00pm 22.6 SW 9 13 1019.8 - 0.6 - Partly cloudy 10 - - - -
27/12:30pm 22.3 SW 5 8 1019.8 - 0.6 - Partly cloudy 10 - - - -
27/12:00pm 22.2 WSW 7 11 1019.9 - 0.6 Recent precip. Cloudy 10 - - - -
27/11:30am 21.9 SW 7 9 1020.1 - 0.6 - Partly cloudy 10 - - - -
27/11:00am 20.7 SW 6 9 1020.0 - 0.4 - Cloudy 10 - - - -
27/10:30am 20.1 WSW 8 11 1020.2 - 0.4 - Partly cloudy 10 - - - -
27/10:00am 20.2 SW 8 11 1020.0 - 0.4 - Partly cloudy 10 - - - -
27/09:30am 19.9 SSW 5 7 1020.2 - 0.2 - Partly cloudy 10 - - - -
27/09:00am 19.6 WSW 6 8 1019.5 - 7.6 - Cloudy 10 - - - -
27/08:30am 19.6 WSW 6 8 1019.4 - 7.6 - Partly cloudy 10 - - - -
27/08:00am 19.6 SSW 5 6 1019.1 - 7.6 - Partly cloudy 10 - - - -
27/07:30am 19.5 WSW 2 7 1019.1 - 7.2 - Partly cloudy 10 - - - -
27/07:07am 19.6 W 7 10 1018.6 - 6.8 - Partly cloudy 10 - - - -
27/07:00am 19.8 WSW 6 8 1018.6 - 6.8 - Partly cloudy 10 - - - -
27/06:35am 19.9 S 7 12 1018.2 - 3.0 - Partly cloudy 5 - - - -
27/06:30am 19.4 S 7 13 1018.3 - 2.8 - Partly cloudy 8 - - - -
27/06:00am 18.8 W 6 7 1018.0 - 2.4 - Partly cloudy 10 - - - -
27/05:30am 19.5 WSW 6 9 1017.6 - 2.4 - Partly cloudy 10 - - - -
27/05:00am 19.3 WSW 8 11 1017.4 - 2.4 - Partly cloudy 10 - - - -
27/04:30am 19.3 WSW 6 7 1017.2 - 2.4 - - 10 - - - -
27/04:00am 20.1 SW 7 12 1017.5 - 2.4 - Partly cloudy 10 - - - -
27/03:30am 20.0 SSW 8 10 1017.6 - 2.4 - Cloudy 10 - - - -
27/03:14am 20.1 SSE 4 7 1017.1 - 2.4 - Partly cloudy 10 - - - -
27/03:00am 20.5 SE 9 14 1017.6 - 2.2 Rain Cloudy 5 - - - -
27/02:59am 20.6 SE 9 14 1017.6 - 2.2 - Partly cloudy 5 - - - -
27/02:30am 20.0 WSW 9 12 1017.4 - 1.8 - Partly cloudy 10 - - - -
27/02:00am 20.0 WSW 8 12 1017.4 - 1.8 - Partly cloudy 10 - - - -
27/01:46am 20.2 WSW 8 11 1018.0 - 1.8 - Partly cloudy 10 - - - -
27/01:31am 20.8 SW 9 16 1018.3 - 1.8 - Partly cloudy 10 - - - -
27/01:30am 20.8 SW 9 16 1018.3 - 1.8 - Partly cloudy 10 - - - -
27/01:00am 21.2 SW 9 12 1018.3 - 1.8 - Partly cloudy 10 - - - -
27/12:30am 21.3 SW 8 12 1018.5 - 1.8 - Partly cloudy 10 - - - -
27/12:00am 23.3 S 8 13 1018.5 - 1.8 - Mostly clear 10 - - - -
 
Date/Time
EDT
Temp
°C
Wind Pressure Rain since
9am
mm
Weather Cloud Vis
km
Sea
Height
m
Swell
Dir  Spd
kts
Gust
kts
hPa Trend Height
m
Period
s
Dir
26/11:30pm 23.4 S 11 16 1018.3 - 1.8 - Partly cloudy 10 - - - -
26/11:00pm 23.0 SSE 13 19 1018.7 - 1.8 - Partly cloudy 10 - - - -
26/10:30pm 23.4 S 12 18 1018.7 - 1.8 - Partly cloudy 10 - - - -
26/10:00pm 22.5 S 9 15 1018.8 - 1.8 - Partly cloudy 10 - - - -
26/09:30pm 21.9 SSE 10 13 1018.4 - 1.8 - Partly cloudy 10 - - - -
26/09:28pm 21.8 SSE 9 13 1018.4 - 1.8 - Partly cloudy 10 - - - -
26/09:13pm 21.5 S 17 28 1018.3 - 1.6 - Partly cloudy 4 - - - -
26/09:09pm 21.2 S 17 28 1018.5 - 1.4 - Partly cloudy 5 - - - -
26/09:06pm 22.3 S 14 28 1018.4 - 0.4 - Partly cloudy 10 - - - -
26/09:00pm 24.3 S 11 16 1018.2 - 0.4 - Cloudy 10 - - - -
26/08:30pm 24.2 S 13 19 1018.2 - 0.4 - Partly cloudy 10 - - - -
26/08:00pm 23.9 S 13 20 1018.0 - 0.4 - Partly cloudy 10 - - - -
26/07:30pm 24.2 S 13 20 1017.4 - 0.4 - Partly cloudy 10 - - - -
26/07:00pm 23.0 S 12 19 1017.4 - 0.4 - Partly cloudy 10 - - - -
26/06:30pm 24.4 SSE 15 21 1017.4 - 0.4 - Partly cloudy 10 - - - -
26/06:00pm 24.9 SSE 12 18 1017.0 - 0.4 - Mostly cloudy 10 - - - -
26/05:30pm 24.7 S 13 19 1016.9 - 0.4 - Partly cloudy 10 - - - -
26/05:00pm 23.9 S 9 13 1016.7 - 0.4 - Partly cloudy 10 - - - -
26/04:30pm 26.1 SSE 12 17 1016.5 - 0.0 - Partly cloudy 10 - - - -
26/04:00pm 26.5 S 13 20 1016.5 - 0.0 - Partly cloudy 10 - - - -
26/03:30pm 26.9 SSE 13 18 1016.7 - 0.0 - Partly cloudy 10 - - - -
26/03:00pm 26.5 SSE 13 17 1016.8 - 0.0 - Mostly cloudy 10 - - - -
26/02:30pm 27.1 SSE 13 18 1016.8 - 0.0 - - 10 - - - -
26/02:00pm 27.4 SSE 14 19 1017.3 - 0.0 - - 10 - - - -
26/01:30pm 26.9 SSE 16 21 1017.5 - 0.0 - Partly cloudy 10 - - - -
26/01:00pm 25.0 SSE 13 22 1017.7 - 0.0 - Partly cloudy 10 - - - -
26/12:30pm 27.4 SSW 12 16 1017.5 - 0.0 - Partly cloudy 10 - - - -
26/12:00pm 27.8 S 11 15 1017.8 - 0.0 - Mostly clear 10 - - - -
26/11:30am 27.5 S 12 17 1018.0 - 0.0 - Partly cloudy 10 - - - -
26/11:00am 27.6 S 12 16 1018.1 - 0.0 - Partly cloudy 10 - - - -
26/10:30am 27.3 SSE 13 17 1017.8 - 0.0 - Partly cloudy 10 - - - -
26/10:00am 25.8 SSW 10 14 1017.7 - 0.0 - Partly cloudy 10 - - - -
26/09:30am 25.9 SSW 11 15 1017.5 - 0.0 - Partly cloudy 10 - - - -
26/09:00am 25.7 WSW 9 13 1017.1 - 0.0 - Mostly clear 10 - - - -
26/08:30am 23.9 WSW 7 9 1017.1 - 0.0 - Partly cloudy 10 - - - -
26/08:00am 22.1 WSW 7 8 1016.9 - 0.0 - Partly cloudy 10 - - - -
26/07:30am 21.1 SW 4 6 1016.3 - 0.0 - Partly cloudy 10 - - - -
26/07:00am 20.0 WSW 5 6 1016.1 - 0.0 - Partly cloudy 10 - - - -
26/06:30am 20.1 SW 5 7 1015.7 - 0.0 - Partly cloudy 10 - - - -
26/06:00am 20.1 WSW 5 6 1015.4 - 0.0 - Mostly clear 10 - - - -
26/05:30am 20.9 WSW 6 7 1015.3 - 0.0 - Partly cloudy 10 - - - -
26/05:00am 20.8 WSW 5 6 1015.1 - 0.0 - Partly cloudy 10 - - - -
26/04:30am 21.2 WSW 6 8 1015.1 - 0.0 - Partly cloudy 10 - - - -
26/04:00am 21.3 WSW 7 9 1015.1 - 0.0 - Partly cloudy 10 - - - -

Other Formats:

Comma delimited format used in spreadsheet applications
http://www.bom.gov.au/fwo/IDN60701/IDN60701.94596.axf

JavaScript Object Notation format (JSON) in row-major order
http://www.bom.gov.au/fwo/IDN60701/IDN60701.94596.json